Time;durP1;ratioP1;P1;durP2;ratioP2;P2;SDS_P1;SDS_P2;PMS_P1;PMS_P2;Temp;Humidity;BMP_temperature;BMP_pressure;BME280_temperature;BME280_humidity;BME280_pressure;Samples;Min_cycle;Max_cycle;Signal;HPM_P1;HPM_P2
2022/02/26 00:02:24;;;;;;;40.92;4.43;;;10.00;77.70;;;;;;4997594;28;20529;-77
2022/02/26 00:04:50;;;;;;;35.92;5.07;;;10.00;77.70;;;;;;4980305;28;20022;-76
2022/02/26 00:07:16;;;;;;;60.08;5.82;;;10.00;77.80;;;;;;4996405;28;20080;-75
2022/02/26 00:09:41;;;;;;;66.97;7.50;;;10.00;77.80;;;;;;4996155;28;20077;-76
2022/02/26 00:12:08;;;;;;;49.05;4.88;;;10.00;77.80;;;;;;4996633;28;20030;-76
2022/02/26 00:14:34;;;;;;;36.78;4.35;;;10.00;77.70;;;;;;4996253;28;20038;-75
2022/02/26 00:16:59;;;;;;;34.45;3.90;;;10.00;77.80;;;;;;4997919;28;20037;-76
2022/02/26 00:19:25;;;;;;;40.45;4.35;;;10.00;77.70;;;;;;4979390;28;20030;-77
2022/02/26 00:21:51;;;;;;;200.95;14.80;;;10.00;77.70;;;;;;4996612;28;20077;-76
2022/02/26 00:24:16;;;;;;;51.25;4.55;;;10.00;77.80;;;;;;4979143;28;20027;-76
2022/02/26 00:26:42;;;;;;;38.15;3.78;;;10.00;77.70;;;;;;5013031;28;20019;-76
2022/02/26 00:29:07;;;;;;;41.05;4.30;;;10.00;77.70;;;;;;5012435;28;20023;-76
2022/02/26 00:31:33;;;;;;;30.63;3.60;;;10.00;78.20;;;;;;4996755;28;20034;-75
2022/02/26 00:33:58;;;;;;;26.42;3.58;;;10.00;77.70;;;;;;4997726;28;20417;-77
2022/02/26 00:36:24;;;;;;;24.58;3.63;;;9.90;77.70;;;;;;4995618;28;20499;-77
2022/02/26 00:38:50;;;;;;;24.23;3.28;;;10.00;77.80;;;;;;4995709;28;20041;-76
2022/02/26 00:41:15;;;;;;;21.30;3.38;;;10.00;77.80;;;;;;4979931;28;20097;-77
2022/02/26 00:43:41;;;;;;;33.15;4.45;;;9.90;77.70;;;;;;4995730;28;20401;-75
2022/02/26 00:46:07;;;;;;;22.10;3.25;;;9.90;77.70;;;;;;4980184;28;20026;-76
2022/02/26 00:51:18;;;;;;;24.77;3.55;;;10.00;77.60;;;;;;4994946;28;20516;-76
2022/02/26 00:53:44;;;;;;;26.48;4.40;;;10.00;77.60;;;;;;4977438;28;20031;-75
2022/02/26 00:56:09;;;;;;;16.52;3.38;;;10.00;77.60;;;;;;4993533;28;20497;-76
2022/02/26 00:58:35;;;;;;;16.23;3.65;;;10.00;77.60;;;;;;4979897;28;20026;-77
2022/02/26 01:01:00;;;;;;;15.82;3.10;;;10.00;77.50;;;;;;4996370;28;20418;-75
2022/02/26 01:03:26;;;;;;;16.20;3.28;;;9.90;77.60;;;;;;4996584;28;20029;-75
2022/02/26 01:05:51;;;;;;;21.60;3.30;;;9.90;77.70;;;;;;5029310;28;20033;-77
2022/02/26 01:08:17;;;;;;;22.73;3.70;;;9.90;77.60;;;;;;4996388;28;20076;-75
2022/02/26 01:10:43;;;;;;;19.60;3.17;;;9.90;77.60;;;;;;5013686;28;20021;-75
2022/02/26 01:13:08;;;;;;;15.25;3.75;;;9.90;77.60;;;;;;5014128;28;20026;-75
2022/02/26 01:15:34;;;;;;;24.10;3.60;;;9.90;77.50;;;;;;5015558;28;20472;-76
2022/02/26 01:17:59;;;;;;;22.85;3.80;;;9.90;77.50;;;;;;4998375;28;20029;-76
2022/02/26 01:20:25;;;;;;;32.72;4.45;;;9.90;77.50;;;;;;4998267;28;20113;-75
2022/02/26 01:22:51;;;;;;;26.30;4.40;;;9.90;77.50;;;;;;4998989;28;20022;-76
2022/02/26 01:25:16;;;;;;;26.65;3.67;;;9.90;77.40;;;;;;4999062;28;20022;-76
2022/02/26 01:27:42;;;;;;;31.40;4.47;;;9.90;77.40;;;;;;4998437;28;20057;-76
2022/02/26 01:30:08;;;;;;;20.45;3.50;;;9.90;77.40;;;;;;4998214;28;20077;-77
2022/02/26 01:32:34;;;;;;;38.83;5.03;;;9.90;77.40;;;;;;4974974;28;20039;-76
2022/02/26 01:34:59;;;;;;;16.23;3.00;;;9.90;77.40;;;;;;4998941;28;20028;-77
2022/02/26 01:37:25;;;;;;;25.52;3.83;;;9.90;77.30;;;;;;4997814;28;20036;-76
2022/02/26 01:39:50;;;;;;;27.00;3.60;;;9.90;77.30;;;;;;5014703;28;20033;-76
2022/02/26 01:42:20;;;;;;;22.98;3.38;;;9.90;77.30;;;;;;4994794;28;20025;-76
2022/02/26 01:44:47;;;;;;;14.65;2.75;;;9.90;77.30;;;;;;5001284;28;20018;-77
2022/02/26 01:47:12;;;;;;;18.95;3.25;;;9.90;77.30;;;;;;4995778;28;20026;-76
2022/02/26 01:49:38;;;;;;;24.67;3.35;;;9.90;77.40;;;;;;4995313;28;20113;-76
2022/02/26 01:52:03;;;;;;;17.80;3.60;;;9.90;77.30;;;;;;4995584;28;20042;-76
2022/02/26 01:54:30;;;;;;;18.55;3.00;;;9.90;77.90;;;;;;5002821;28;20026;-76
2022/02/26 01:56:56;;;;;;;18.77;3.17;;;9.90;77.40;;;;;;5009352;28;20088;-76
2022/02/26 01:59:22;;;;;;;20.00;3.22;;;9.90;77.40;;;;;;4994613;28;20045;-76
2022/02/26 02:01:48;;;;;;;14.43;3.10;;;9.90;77.30;;;;;;4994115;28;20054;-76
2022/02/26 02:04:14;;;;;;;19.27;3.28;;;9.90;77.20;;;;;;4995514;28;20162;-76
2022/02/26 02:06:40;;;;;;;44.92;5.30;;;9.90;77.20;;;;;;4995567;28;20041;-77
2022/02/26 02:09:07;;;;;;;15.30;3.35;;;9.90;77.30;;;;;;4994934;28;20520;-76
2022/02/26 02:11:35;;;;;;;18.35;3.00;;;9.90;77.30;;;;;;4993508;28;20181;-76
2022/02/26 02:14:00;;;;;;;30.50;4.15;;;9.90;77.20;;;;;;4994341;28;20026;-76
2022/02/26 02:16:26;;;;;;;23.02;3.58;;;9.90;77.10;;;;;;4995455;28;20123;-77
2022/02/26 02:18:52;;;;;;;15.95;3.28;;;9.90;77.10;;;;;;4994675;28;20030;-78
2022/02/26 02:21:18;;;;;;;19.05;3.35;;;9.90;77.20;;;;;;4995215;28;20050;-76
2022/02/26 02:23:44;;;;;;;15.52;3.03;;;9.90;77.30;;;;;;5010735;28;20413;-76
2022/02/26 02:26:10;;;;;;;22.08;3.75;;;9.90;77.10;;;;;;4995742;28;20018;-77
2022/02/26 02:28:37;;;;;;;26.40;3.65;;;9.90;77.10;;;;;;4994170;28;20022;-76
2022/02/26 02:31:02;;;;;;;16.95;3.88;;;9.90;77.20;;;;;;5010336;28;20031;-76
2022/02/26 02:33:28;;;;;;;16.92;3.20;;;9.90;77.10;;;;;;4994978;28;20037;-77
2022/02/26 02:35:54;;;;;;;17.30;2.85;;;9.90;77.10;;;;;;5006536;28;20087;-76
2022/02/26 02:38:19;;;;;;;20.95;3.78;;;9.90;77.10;;;;;;4997720;28;20057;-76
2022/02/26 02:40:47;;;;;;;14.18;3.15;;;9.90;77.20;;;;;;4996373;28;20101;-77
2022/02/26 02:43:14;;;;;;;12.05;3.20;;;9.90;77.20;;;;;;4993948;28;20496;-77
2022/02/26 02:45:40;;;;;;;16.75;2.90;;;9.80;77.60;;;;;;4994058;28;20030;-76
2022/02/26 02:48:06;;;;;;;16.17;3.03;;;9.90;77.20;;;;;;5000397;28;20032;-76
2022/02/26 02:50:32;;;;;;;12.93;2.75;;;9.80;77.10;;;;;;4998782;28;20065;-76
2022/02/26 02:52:58;;;;;;;15.93;3.13;;;9.80;77.10;;;;;;4999198;28;20032;-76
2022/02/26 02:55:23;;;;;;;15.68;3.22;;;9.90;77.20;;;;;;5014245;28;20133;-76
2022/02/26 02:57:51;;;;;;;17.33;2.83;;;9.90;77.00;;;;;;5014351;28;20037;-76
2022/02/26 03:00:17;;;;;;;21.55;3.70;;;9.90;77.10;;;;;;4998263;28;20027;-76
2022/02/26 03:02:43;;;;;;;17.92;3.05;;;9.90;77.00;;;;;;5013827;28;20084;-76
2022/02/26 03:05:10;;;;;;;15.90;3.28;;;9.80;76.90;;;;;;4998953;28;20089;-76
2022/02/26 03:07:36;;;;;;;12.80;2.83;;;9.90;77.00;;;;;;4998161;28;20030;-76
2022/02/26 03:10:06;;;;;;;13.20;2.60;;;9.80;76.90;;;;;;4981013;28;20400;-75
2022/02/26 03:12:32;;;;;;;15.05;2.78;;;9.90;76.90;;;;;;4997626;28;20038;-76
2022/02/26 03:14:58;;;;;;;19.23;3.33;;;9.80;77.40;;;;;;4996390;28;20037;-76
2022/02/26 03:17:24;;;;;;;28.45;4.35;;;9.90;77.00;;;;;;4997253;28;20038;-76
2022/02/26 03:19:49;;;;;;;21.92;3.33;;;9.80;77.00;;;;;;4996272;28;20027;-76
2022/02/26 03:22:20;;;;;;;19.95;3.13;;;9.80;77.00;;;;;;4997096;28;20026;-76
2022/02/26 03:24:46;;;;;;;19.58;3.20;;;9.80;76.90;;;;;;4978519;28;20054;-76
2022/02/26 03:27:11;;;;;;;19.50;3.22;;;9.90;76.90;;;;;;4997198;28;20022;-76
2022/02/26 03:29:38;;;;;;;24.77;4.20;;;9.80;76.80;;;;;;4998362;28;20046;-76
2022/02/26 03:32:05;;;;;;;25.83;4.82;;;9.80;76.80;;;;;;4996864;28;20414;-76
2022/02/26 03:34:30;;;;;;;20.90;3.53;;;9.80;76.90;;;;;;4996782;28;20030;-76
2022/02/26 03:36:57;;;;;;;21.67;3.40;;;9.80;76.90;;;;;;4997718;28;20037;-76
2022/02/26 03:39:23;;;;;;;24.38;4.00;;;9.80;76.90;;;;;;4980440;28;21772;-76
2022/02/26 03:41:49;;;;;;;27.55;3.97;;;9.80;76.90;;;;;;5013373;28;20031;-76
2022/02/26 03:44:14;;;;;;;18.67;3.38;;;9.80;76.80;;;;;;4998264;28;20018;-77
2022/02/26 03:46:40;;;;;;;25.48;3.58;;;9.80;76.80;;;;;;4997966;28;20029;-76
2022/02/26 03:49:07;;;;;;;20.88;3.42;;;9.80;76.70;;;;;;4996158;28;20034;-77
2022/02/26 03:51:33;;;;;;;33.92;4.05;;;9.80;76.80;;;;;;4980176;28;20030;-76
2022/02/26 03:53:59;;;;;;;48.88;5.63;;;9.80;76.70;;;;;;4998258;28;20493;-76
2022/02/26 03:56:27;;;;;;;44.25;4.88;;;9.80;76.80;;;;;;4997231;28;20034;-76
2022/02/26 03:58:53;;;;;;;26.75;3.95;;;9.80;76.70;;;;;;4995478;28;20054;-76
2022/02/26 04:01:20;;;;;;;20.00;3.38;;;9.80;76.70;;;;;;4996613;28;20482;-75
2022/02/26 04:03:46;;;;;;;19.20;3.20;;;9.80;76.70;;;;;;5068457;22;20826;-74
2022/02/26 04:06:12;;;;;;;21.77;3.28;;;9.80;76.70;;;;;;5016662;28;20033;-74
2022/02/26 04:08:38;;;;;;;19.58;2.97;;;9.80;76.60;;;;;;5040413;28;20029;-74
2022/02/26 04:11:03;;;;;;;26.25;4.28;;;9.80;76.60;;;;;;5053236;28;20028;-74
2022/02/26 04:13:29;;;;;;;15.20;3.20;;;9.80;76.50;;;;;;5053886;28;20071;-74
2022/02/26 04:15:55;;;;;;;19.33;2.83;;;9.80;76.50;;;;;;5054102;28;20104;-74
2022/02/26 04:18:20;;;;;;;16.90;3.08;;;9.80;76.60;;;;;;5048181;28;20045;-74
2022/02/26 04:20:46;;;;;;;12.75;2.60;;;9.80;76.50;;;;;;5015932;28;20488;-74
2022/02/26 04:23:11;;;;;;;15.52;3.08;;;9.80;76.50;;;;;;5034087;28;20100;-74
2022/02/26 04:25:37;;;;;;;15.13;2.95;;;9.80;76.50;;;;;;5036461;28;20029;-73
2022/02/26 04:28:04;;;;;;;14.20;2.80;;;9.80;76.50;;;;;;5051138;28;20028;-74
2022/02/26 04:30:30;;;;;;;12.27;2.78;;;9.80;76.50;;;;;;5033540;28;20037;-74
2022/02/26 04:32:56;;;;;;;8.60;2.75;;;9.80;76.50;;;;;;5036976;28;20029;-74
2022/02/26 04:35:22;;;;;;;10.43;2.55;;;9.80;77.00;;;;;;5035537;28;20097;-74
2022/02/26 04:37:47;;;;;;;15.23;2.53;;;9.80;76.50;;;;;;5035596;28;20041;-74
2022/02/26 04:40:15;;;;;;;12.45;3.15;;;9.80;76.50;;;;;;5016282;28;20166;-74
2022/02/26 04:42:41;;;;;;;11.45;2.40;;;9.80;76.40;;;;;;5022143;28;20021;-74
2022/02/26 04:45:08;;;;;;;12.43;3.17;;;9.80;76.40;;;;;;5035266;28;20029;-74
2022/02/26 04:47:34;;;;;;;11.98;2.90;;;9.80;76.50;;;;;;5053131;28;20029;-74
2022/02/26 04:49:59;;;;;;;10.93;2.90;;;9.80;76.30;;;;;;5036784;28;20032;-74
2022/02/26 04:52:25;;;;;;;12.20;2.90;;;9.80;76.30;;;;;;5033621;28;20022;-74
2022/02/26 04:54:50;;;;;;;11.60;3.00;;;9.80;76.40;;;;;;5043397;28;20079;-74
2022/02/26 04:57:16;;;;;;;11.60;2.72;;;9.80;76.40;;;;;;5033769;28;20025;-75
2022/02/26 04:59:42;;;;;;;10.80;3.20;;;9.80;76.40;;;;;;5033781;28;20025;-73
2022/02/26 05:02:07;;;;;;;37.13;3.92;;;9.80;76.40;;;;;;5018437;28;20108;-74
2022/02/26 05:04:33;;;;;;;18.70;3.58;;;9.80;76.40;;;;;;5035693;28;20579;-75
2022/02/26 05:06:58;;;;;;;14.38;3.20;;;9.80;76.40;;;;;;5024637;28;20049;-74
2022/02/26 05:09:24;;;;;;;14.95;3.08;;;9.70;76.30;;;;;;5033677;28;20025;-74
2022/02/26 05:11:49;;;;;;;14.80;2.75;;;9.70;76.50;;;;;;5015690;28;20072;-74
2022/02/26 05:14:15;;;;;;;12.15;3.33;;;9.80;76.50;;;;;;5015378;28;20029;-74
2022/02/26 05:16:40;;;;;;;15.38;3.10;;;9.70;76.50;;;;;;5014721;28;20025;-74
2022/02/26 05:19:06;;;;;;;12.98;3.17;;;9.70;76.50;;;;;;5014743;28;20021;-74
2022/02/26 05:21:32;;;;;;;11.20;2.40;;;9.70;76.50;;;;;;5029449;28;20029;-74
2022/02/26 05:23:57;;;;;;;9.60;2.20;;;9.70;76.50;;;;;;5033161;28;20039;-74
2022/02/26 05:26:23;;;;;;;11.05;2.78;;;9.70;76.40;;;;;;5050980;28;20039;-74
2022/02/26 05:28:48;;;;;;;13.90;3.20;;;9.70;76.50;;;;;;5034156;28;20056;-73
2022/02/26 05:31:14;;;;;;;11.82;3.00;;;9.70;76.40;;;;;;5043579;28;20025;-74
2022/02/26 05:33:39;;;;;;;9.32;2.78;;;9.70;76.40;;;;;;5017956;28;20037;-74
2022/02/26 05:36:05;;;;;;;10.90;2.88;;;9.70;76.40;;;;;;5034474;28;20033;-74
2022/02/26 05:38:31;;;;;;;10.75;3.17;;;9.70;76.40;;;;;;5014748;28;20159;-71
2022/02/26 05:40:57;;;;;;;10.68;2.90;;;9.70;76.40;;;;;;5015664;28;20124;-72
2022/02/26 05:43:22;;;;;;;15.52;3.50;;;9.70;76.30;;;;;;5014711;28;20029;-72
2022/02/26 05:45:48;;;;;;;11.68;3.00;;;9.70;76.40;;;;;;5032736;28;20035;-74
2022/02/26 05:48:14;;;;;;;11.55;3.25;;;9.70;76.30;;;;;;5015403;28;20018;-74
2022/02/26 05:50:39;;;;;;;9.02;2.88;;;9.70;76.30;;;;;;5032288;28;20032;-74
2022/02/26 05:53:05;;;;;;;10.27;3.13;;;9.70;76.20;;;;;;5014646;28;20029;-74
2022/02/26 05:55:31;;;;;;;10.40;3.15;;;9.70;76.20;;;;;;5042438;28;20049;-74
2022/02/26 05:57:57;;;;;;;10.65;3.03;;;9.70;76.20;;;;;;5049323;28;20052;-74
2022/02/26 06:00:23;;;;;;;8.45;2.78;;;9.70;76.20;;;;;;5015185;28;20033;-74
2022/02/26 06:02:49;;;;;;;11.85;3.03;;;9.70;76.30;;;;;;5032005;28;20502;-74
2022/02/26 06:05:14;;;;;;;9.20;2.88;;;9.70;76.20;;;;;;5022026;28;20052;-74
2022/02/26 06:07:40;;;;;;;9.35;2.92;;;9.70;76.30;;;;;;5018723;28;20053;-74
2022/02/26 06:10:08;;;;;;;7.95;2.85;;;9.70;76.30;;;;;;5017045;28;20032;-73
2022/02/26 06:12:34;;;;;;;8.63;2.80;;;9.70;76.20;;;;;;5018467;28;20033;-74
2022/02/26 06:15:00;;;;;;;10.10;2.90;;;9.70;76.30;;;;;;5018371;28;20087;-74
2022/02/26 06:17:26;;;;;;;9.90;3.00;;;9.70;76.20;;;;;;5014131;28;20037;-74
2022/02/26 06:19:51;;;;;;;9.30;3.03;;;9.70;76.20;;;;;;5011892;28;20030;-74
2022/02/26 06:22:17;;;;;;;9.48;2.95;;;9.70;76.20;;;;;;5010415;28;20030;-74
2022/02/26 06:24:43;;;;;;;10.20;2.78;;;9.70;76.20;;;;;;5014856;28;20021;-74
2022/02/26 06:27:08;;;;;;;9.45;3.58;;;9.70;76.20;;;;;;5021953;28;20025;-74
2022/02/26 06:29:34;;;;;;;7.60;2.72;;;9.70;76.20;;;;;;5021049;28;20083;-74
2022/02/26 06:31:59;;;;;;;10.38;3.35;;;9.70;76.20;;;;;;5023514;28;20435;-74
2022/02/26 06:34:27;;;;;;;8.40;2.80;;;9.70;76.20;;;;;;5001126;28;20037;-74
2022/02/26 06:36:52;;;;;;;7.40;2.70;;;9.70;76.00;;;;;;5008689;28;20026;-74
2022/02/26 06:39:18;;;;;;;10.02;2.90;;;9.70;76.10;;;;;;5007858;28;20210;-74
2022/02/26 06:41:44;;;;;;;9.88;2.80;;;9.70;76.00;;;;;;5011332;28;20030;-74
2022/02/26 06:44:09;;;;;;;9.05;3.00;;;9.70;76.00;;;;;;5021984;28;20026;-74
2022/02/26 06:46:35;;;;;;;9.57;2.92;;;9.70;75.90;;;;;;5017184;28;20026;-74
2022/02/26 06:49:02;;;;;;;8.43;2.80;;;9.70;76.00;;;;;;5026999;28;20078;-74
2022/02/26 06:51:28;;;;;;;7.25;2.78;;;9.70;76.00;;;;;;5027795;28;20140;-74
2022/02/26 06:53:53;;;;;;;7.95;3.10;;;9.70;75.80;;;;;;5015268;28;20033;-74
2022/02/26 06:56:19;;;;;;;8.18;2.70;;;9.70;75.70;;;;;;5005568;28;20036;-74
2022/02/26 06:58:45;;;;;;;8.02;3.05;;;9.70;75.70;;;;;;5016107;28;20087;-75
2022/02/26 07:01:10;;;;;;;8.35;3.03;;;9.70;75.70;;;;;;5019732;28;20055;-74
2022/02/26 07:03:36;;;;;;;10.77;3.10;;;9.70;75.60;;;;;;5006088;28;20037;-73
2022/02/26 07:06:02;;;;;;;8.02;2.95;;;9.70;75.60;;;;;;5019901;28;20013;-74
2022/02/26 07:08:28;;;;;;;8.15;3.35;;;9.80;75.60;;;;;;5009428;28;20036;-75
2022/02/26 07:10:55;;;;;;;7.53;3.10;;;9.80;75.50;;;;;;5012053;28;20025;-74
2022/02/26 07:13:21;;;;;;;6.80;2.90;;;9.80;75.50;;;;;;5024964;28;20958;-74
2022/02/26 07:15:46;;;;;;;9.68;2.90;;;9.80;75.60;;;;;;5009506;28;20017;-76
2022/02/26 07:18:12;;;;;;;8.38;3.25;;;9.80;75.60;;;;;;5029869;28;20444;-74
2022/02/26 07:20:38;;;;;;;9.07;3.08;;;9.90;75.70;;;;;;5008003;28;20044;-74
2022/02/26 07:23:04;;;;;;;7.93;3.20;;;9.90;75.60;;;;;;5009261;28;20026;-74
2022/02/26 07:25:30;;;;;;;6.63;2.80;;;9.90;75.70;;;;;;5020029;28;20067;-75
2022/02/26 07:27:55;;;;;;;7.50;3.10;;;9.90;75.60;;;;;;5021298;28;20025;-74
2022/02/26 07:30:21;;;;;;;9.00;3.10;;;9.90;76.10;;;;;;5021069;28;20032;-75
2022/02/26 07:32:46;;;;;;;10.60;3.47;;;10.00;75.60;;;;;;5034493;28;20037;-75
2022/02/26 07:35:12;;;;;;;8.55;3.40;;;10.00;76.00;;;;;;5017214;28;20033;-75
2022/02/26 07:37:38;;;;;;;8.50;3.30;;;10.00;75.40;;;;;;5028975;28;20032;-75
2022/02/26 07:40:04;;;;;;;7.55;3.03;;;10.00;75.20;;;;;;5011470;28;20049;-75
2022/02/26 07:42:30;;;;;;;7.10;2.80;;;10.10;75.20;;;;;;5029762;28;20116;-75
2022/02/26 07:44:56;;;;;;;8.90;3.33;;;10.00;73.40;;;;;;5009998;28;20117;-76
2022/02/26 07:47:22;;;;;;;8.23;3.10;;;10.00;72.80;;;;;;5029797;28;20108;-75
2022/02/26 07:49:48;;;;;;;8.20;2.88;;;10.10;73.30;;;;;;5012990;28;20045;-75
2022/02/26 07:52:15;;;;;;;6.93;3.00;;;10.10;73.50;;;;;;5045460;28;20021;-75
2022/02/26 07:54:40;;;;;;;9.27;3.25;;;10.20;73.60;;;;;;5019873;28;20037;-74
2022/02/26 07:57:06;;;;;;;8.15;2.63;;;10.20;73.70;;;;;;5024220;28;20041;-75
2022/02/26 07:59:31;;;;;;;9.65;3.80;;;10.30;73.90;;;;;;5031779;28;20029;-74
2022/02/26 08:01:59;;;;;;;8.68;3.15;;;10.30;74.00;;;;;;5040711;28;20070;-75
2022/02/26 08:04:28;;;;;;;9.50;3.22;;;10.30;74.00;;;;;;5029108;28;20589;-74
2022/02/26 08:06:54;;;;;;;7.85;2.70;;;10.30;74.00;;;;;;5016934;28;20021;-80
2022/02/26 08:09:20;;;;;;;8.25;3.08;;;10.40;74.00;;;;;;5029107;28;20025;-76
2022/02/26 08:11:45;;;;;;;8.85;3.35;;;10.40;73.90;;;;;;5028298;28;20052;-75
2022/02/26 08:14:11;;;;;;;9.55;3.60;;;10.40;73.50;;;;;;5029646;28;20037;-75
2022/02/26 08:16:37;;;;;;;9.13;3.60;;;10.40;73.00;;;;;;5029098;28;20040;-74
2022/02/26 08:19:03;;;;;;;9.00;3.78;;;10.40;72.90;;;;;;5011123;28;20373;-75
2022/02/26 08:21:31;;;;;;;8.20;3.53;;;10.50;73.50;;;;;;5029238;28;20548;-75
2022/02/26 08:23:56;;;;;;;9.27;3.63;;;10.50;73.30;;;;;;5029429;28;20025;-75
2022/02/26 08:26:22;;;;;;;7.45;3.25;;;10.50;73.50;;;;;;5011661;28;20032;-74
2022/02/26 08:28:47;;;;;;;7.65;3.35;;;10.50;73.60;;;;;;5027580;28;20037;-74
2022/02/26 08:31:13;;;;;;;8.75;3.22;;;10.60;73.50;;;;;;5022941;28;20485;-74
2022/02/26 08:33:39;;;;;;;7.45;2.90;;;10.60;73.60;;;;;;5021513;28;20033;-74
2022/02/26 08:36:04;;;;;;;8.02;3.50;;;10.60;73.70;;;;;;5009680;28;20026;-73
2022/02/26 08:38:30;;;;;;;8.30;3.30;;;10.50;73.80;;;;;;5009777;28;20033;-75
2022/02/26 08:40:56;;;;;;;9.18;3.55;;;10.60;74.00;;;;;;5028218;28;20034;-76
2022/02/26 08:43:23;;;;;;;8.52;3.20;;;10.50;74.10;;;;;;5029409;28;20532;-74
2022/02/26 08:45:49;;;;;;;6.35;3.00;;;10.50;74.20;;;;;;5027480;28;20025;-75
2022/02/26 08:48:15;;;;;;;15.55;3.40;;;10.60;74.20;;;;;;5028342;28;20482;-74
2022/02/26 08:50:41;;;;;;;12.45;3.20;;;10.50;74.10;;;;;;5026019;28;20026;-76
2022/02/26 08:53:06;;;;;;;14.77;3.25;;;10.60;74.00;;;;;;5026852;28;20389;-74
2022/02/26 08:55:32;;;;;;;9.40;3.40;;;10.60;74.10;;;;;;5027923;28;20480;-74
2022/02/26 08:57:58;;;;;;;12.88;3.55;;;10.60;74.30;;;;;;5027684;28;20041;-74
2022/02/26 09:00:23;;;;;;;11.55;3.35;;;10.60;74.40;;;;;;5026922;28;20025;-75
2022/02/26 09:02:49;;;;;;;15.73;3.60;;;10.60;74.10;;;;;;5023642;28;20032;-74
2022/02/26 09:05:15;;;;;;;15.25;3.42;;;10.60;73.60;;;;;;5006703;28;20040;-74
2022/02/26 09:07:40;;;;;;;9.88;3.17;;;10.60;73.10;;;;;;5006165;28;20385;-75
2022/02/26 09:10:06;;;;;;;13.30;3.03;;;10.60;73.30;;;;;;5004835;28;20066;-74
2022/02/26 09:12:32;;;;;;;9.82;3.50;;;10.60;73.70;;;;;;5006559;28;20389;-74
2022/02/26 09:14:58;;;;;;;11.57;3.15;;;10.60;73.90;;;;;;5005606;28;20048;-75
2022/02/26 09:17:24;;;;;;;10.50;3.85;;;10.60;74.00;;;;;;5006757;28;20120;-74
2022/02/26 09:19:50;;;;;;;10.73;3.13;;;10.60;74.20;;;;;;5004771;28;20026;-74
2022/02/26 09:22:16;;;;;;;10.98;2.60;;;10.50;74.20;;;;;;5006352;28;20057;-76
2022/02/26 09:24:41;;;;;;;9.73;2.90;;;10.50;74.30;;;;;;5006685;28;20519;-76
2022/02/26 09:27:07;;;;;;;10.00;3.30;;;10.50;74.30;;;;;;5005510;28;20695;-75
2022/02/26 09:29:33;;;;;;;9.75;3.22;;;10.60;74.20;;;;;;5006187;28;20025;-75
2022/02/26 09:31:58;;;;;;;10.63;3.65;;;10.60;74.20;;;;;;5005048;28;20059;-75
2022/02/26 09:34:24;;;;;;;8.93;2.88;;;10.60;74.20;;;;;;5006518;28;20033;-76
2022/02/26 09:36:51;;;;;;;8.63;3.00;;;10.60;74.10;;;;;;5007140;28;20113;-77
2022/02/26 09:39:18;;;;;;;11.20;3.63;;;10.60;74.40;;;;;;5005265;28;20983;-75
2022/02/26 09:41:46;;;;;;;11.30;2.97;;;10.60;74.70;;;;;;5003868;28;20028;-76
2022/02/26 09:44:12;;;;;;;9.23;3.05;;;10.60;75.00;;;;;;5005480;28;20080;-76
2022/02/26 09:46:39;;;;;;;11.05;2.85;;;10.60;75.30;;;;;;5022114;28;20061;-77
2022/02/26 09:49:05;;;;;;;9.60;3.28;;;10.60;75.40;;;;;;5005382;28;20026;-77
2022/02/26 09:51:32;;;;;;;8.15;2.70;;;10.50;75.50;;;;;;5006888;28;20492;-76
2022/02/26 09:53:58;;;;;;;9.13;2.83;;;10.50;75.60;;;;;;5006659;28;20477;-76
2022/02/26 09:56:24;;;;;;;11.30;2.83;;;10.50;75.70;;;;;;5004649;28;20037;-76
2022/02/26 09:58:51;;;;;;;8.50;2.67;;;10.60;75.70;;;;;;5005430;28;20037;-76
2022/02/26 10:01:16;;;;;;;7.38;2.90;;;10.60;75.60;;;;;;5004977;28;20515;-76
2022/02/26 10:03:42;;;;;;;9.80;2.88;;;10.70;75.60;;;;;;5008673;28;20473;-77
2022/02/26 10:06:11;;;;;;;9.63;3.00;;;10.60;75.70;;;;;;5009015;28;20124;-74
2022/02/26 10:08:43;;;;;;;6.75;2.50;;;10.60;75.80;;;;;;5009004;28;20132;-75
2022/02/26 10:11:21;;;;;;;9.95;2.88;;;10.60;75.90;;;;;;5025868;28;20029;-74
2022/02/26 10:13:47;;;;;;;8.32;2.83;;;10.60;75.90;;;;;;5007423;28;20036;-75
2022/02/26 10:16:13;;;;;;;10.57;3.00;;;10.70;76.00;;;;;;5007469;28;20026;-74
2022/02/26 10:18:50;;;;;;;8.10;3.00;;;10.60;75.90;;;;;;5008051;28;20503;-75
2022/02/26 10:21:30;;;;;;;8.57;2.92;;;10.70;75.80;;;;;;5008617;28;20029;-75
2022/02/26 10:23:56;;;;;;;8.35;2.80;;;10.70;75.70;;;;;;5026075;28;20484;-74
2022/02/26 10:26:26;;;;;;;7.13;2.90;;;10.80;75.70;;;;;;5009943;28;20037;-76
2022/02/26 10:29:12;;;;;;;9.77;2.95;;;10.80;75.50;;;;;;5029316;28;20025;-75
2022/02/26 10:31:48;;;;;;;7.90;2.88;;;10.80;75.40;;;;;;5010664;28;20025;-76
2022/02/26 10:34:30;;;;;;;8.05;2.80;;;10.80;75.30;;;;;;5028469;28;20029;-75
2022/02/26 10:37:19;;;;;;;9.15;2.65;;;10.80;75.30;;;;;;5028282;28;20044;-74
2022/02/26 10:39:48;;;;;;;9.48;2.60;;;10.80;75.50;;;;;;5027879;28;20527;-74
2022/02/26 10:42:24;;;;;;;8.10;2.40;;;10.80;75.50;;;;;;5010373;28;20025;-74
2022/02/26 10:45:12;;;;;;;9.27;2.78;;;10.80;75.40;;;;;;5028464;28;20068;-74
2022/02/26 10:47:41;;;;;;;8.88;2.88;;;10.90;75.40;;;;;;5010501;28;20043;-76
2022/02/26 10:50:17;;;;;;;9.82;2.95;;;10.90;75.30;;;;;;5028319;28;20025;-75
2022/02/26 10:52:55;;;;;;;11.82;3.05;;;11.00;75.00;;;;;;5011075;28;20061;-76
2022/02/26 10:55:20;;;;;;;9.73;2.95;;;11.00;74.80;;;;;;5010833;28;20563;-74
2022/02/26 10:57:46;;;;;;;10.10;2.60;;;11.10;74.80;;;;;;5010286;28;20120;-74
2022/02/26 11:00:13;;;;;;;8.95;2.72;;;11.10;74.70;;;;;;5028305;28;20443;-75
2022/02/26 11:02:38;;;;;;;7.90;2.90;;;11.20;74.60;;;;;;5028172;28;20113;-75
2022/02/26 11:05:06;;;;;;;9.80;3.13;;;11.10;74.40;;;;;;5007862;28;20492;-74
2022/02/26 11:07:31;;;;;;;8.25;2.75;;;11.10;74.50;;;;;;5008804;28;20101;-75
2022/02/26 11:09:59;;;;;;;8.88;2.88;;;11.20;74.50;;;;;;5010757;28;20102;-74
2022/02/26 11:12:27;;;;;;;8.70;2.25;;;11.20;74.40;;;;;;5010469;28;20080;-74
2022/02/26 11:14:59;;;;;;;8.05;2.78;;;11.20;74.30;;;;;;5010751;28;20018;-74
2022/02/26 11:17:26;;;;;;;8.15;2.40;;;11.20;74.20;;;;;;5010635;28;20030;-73
2022/02/26 11:20:01;;;;;;;9.02;2.42;;;11.20;74.20;;;;;;5010278;28;20025;-74
2022/02/26 11:22:27;;;;;;;19.27;3.10;;;11.30;74.30;;;;;;5008399;28;20032;-73
2022/02/26 11:24:54;;;;;;;14.82;2.85;;;11.20;74.40;;;;;;5008221;28;20500;-74
2022/02/26 11:27:24;;;;;;;11.57;2.90;;;11.20;74.50;;;;;;5007994;28;20022;-74
2022/02/26 11:29:51;;;;;;;721.55;56.72;;;11.20;74.50;;;;;;5007706;28;20030;-74
2022/02/26 11:32:20;;;;;;;272.63;20.00;;;11.10;74.70;;;;;;5008329;28;20064;-74
2022/02/26 11:34:47;;;;;;;135.27;12.38;;;11.10;74.40;;;;;;5007985;28;20520;-75
2022/02/26 11:37:16;;;;;;;70.30;6.88;;;11.10;74.30;;;;;;5008087;28;20037;-74
2022/02/26 11:39:48;;;;;;;54.25;6.10;;;11.10;73.90;;;;;;5007442;28;20073;-74
2022/02/26 11:42:13;;;;;;;;;;;11.10;73.30;;;;;;5008259;28;20129;-73
2022/02/26 11:44:47;;;;;;;32.08;4.38;;;11.00;72.70;;;;;;5007677;28;20066;-75
2022/02/26 11:47:16;;;;;;;37.03;4.43;;;11.00;72.60;;;;;;5009271;28;20033;-75
2022/02/26 11:50:03;;;;;;;29.80;4.10;;;11.00;72.70;;;;;;5007677;28;20025;-75
2022/02/26 11:52:49;;;;;;;23.20;3.15;;;11.00;72.40;;;;;;5007287;28;20489;-75
2022/02/26 11:55:23;;;;;;;20.75;2.67;;;10.90;71.60;;;;;;5008942;28;20042;-75
2022/02/26 11:57:50;;;;;;;15.77;2.95;;;10.70;70.30;;;;;;5007862;28;20026;-74
2022/02/26 12:00:17;;;;;;;14.43;2.63;;;10.60;69.30;;;;;;5007522;28;20034;-75
2022/02/26 12:02:43;;;;;;;13.35;2.60;;;10.50;69.20;;;;;;5007776;28;20755;-75
2022/02/26 12:05:09;;;;;;;17.58;2.75;;;10.50;68.90;;;;;;5007338;28;20570;-74
2022/02/26 12:07:40;;;;;;;15.32;2.45;;;10.50;68.70;;;;;;5007798;28;20018;-75
2022/02/26 12:10:10;;;;;;;14.18;2.63;;;10.60;68.50;;;;;;5007308;28;20493;-74
2022/02/26 12:12:47;;;;;;;13.25;2.70;;;10.70;68.10;;;;;;5007682;28;20100;-75
2022/02/26 12:15:21;;;;;;;12.20;2.50;;;10.70;67.90;;;;;;5007057;28;20080;-74
2022/02/26 12:17:53;;;;;;;22.25;2.60;;;10.80;67.30;;;;;;5008559;28;20037;-75
2022/02/26 12:20:30;;;;;;;28.30;4.15;;;10.90;67.30;;;;;;5007114;28;20048;-75
2022/02/26 12:23:10;;;;;;;17.50;2.60;;;10.90;66.90;;;;;;5008762;28;20030;-73
2022/02/26 12:25:43;;;;;;;14.73;2.85;;;10.90;67.20;;;;;;5007179;28;20030;-75
2022/02/26 12:28:11;;;;;;;14.00;2.80;;;11.00;67.80;;;;;;5007408;28;20026;-74
2022/02/26 12:31:07;;;;;;;14.30;2.63;;;11.00;68.20;;;;;;5006575;28;20322;-75
2022/02/26 12:33:45;;;;;;;12.75;2.35;;;11.00;68.50;;;;;;5007044;28;20037;-75
2022/02/26 12:36:14;;;;;;;12.48;3.15;;;11.10;68.10;;;;;;5008338;28;20029;-75
2022/02/26 12:38:53;;;;;;;11.10;2.20;;;11.10;67.60;;;;;;5007870;28;20034;-73
2022/02/26 12:41:31;;;;;;;12.52;2.22;;;11.10;66.20;;;;;;5007837;28;20052;-74
2022/02/26 12:43:58;;;;;;;15.10;2.30;;;11.20;64.90;;;;;;5008045;28;20036;-75
2022/02/26 12:46:27;;;;;;;11.80;2.33;;;11.10;64.80;;;;;;5006660;28;20025;-75
2022/02/26 12:48:53;;;;;;;9.68;2.30;;;11.20;64.70;;;;;;5006648;28;20177;-74